Aviation Digital Data Service (ADDS)

Output produced by METARs form (0911 UTC 24 March 2019)
found at http://www.aviationweather.gov/metar/data/
 
METAR text: SEST 240000Z 00000KT 6000 -RA BKN013 BKN300 26/25 Q1007 RMK A2973 RERA
Conditions at: SEST (SAN CRISTOBAL IS, EC) observed 0000 UTC 24 March 2019
Temperature: 26.0°C (79°F)
Dewpoint: 25.0°C (77°F) [RH = 94%]
Pressure (altimeter): 29.73 inches Hg (1007.0 mb)
Winds: calm
Visibility: 4 miles ( 6 km)
Ceiling: 1300 feet AGL
Clouds: broken clouds at 1300 feet AGL
broken clouds at 30000 feet AGL
Weather: -RA  (light rain)

METAR text: SEST 232300Z 00000KT 5000 RA FEW008 OVC013 26/25 Q1006 RMK A2972
Conditions at: SEST (SAN CRISTOBAL IS, EC) observed 2300 UTC 23 March 2019
Temperature: 26.0°C (79°F)
Dewpoint: 25.0°C (77°F) [RH = 94%]
Pressure (altimeter): 29.70 inches Hg (1006.0 mb)
Winds: calm
Visibility: 3 miles ( 5 km)
Ceiling: 1300 feet AGL
Clouds: few clouds at 800 feet AGL
overcast cloud deck at 1300 feet AGL
Weather: RA  (moderate rain)

METAR text: SEST 232227Z 00000KT 6000 RA SCT013 OVC030
Conditions at: SEST (SAN CRISTOBAL IS, EC) observed 2227 UTC 23 March 2019
Temperature: missing
Dewpoint: missing
Pressure (altimeter): missing
Winds: calm
Visibility: 4 miles ( 6 km)
Ceiling: 3000 feet AGL
Clouds: scattered clouds at 1300 feet AGL
overcast cloud deck at 3000 feet AGL
Weather: RA  (moderate rain)

METAR text: SEST 232200Z 28003KT 9999 4000E -RA SCT013 BKN080 BKN300 27/26 Q1006 RMK A2972
Conditions at: SEST (SAN CRISTOBAL IS, EC) observed 2200 UTC 23 March 2019
Temperature: 27.0°C (81°F)
Dewpoint: 26.0°C (79°F) [RH = 94%]
Pressure (altimeter): 29.70 inches Hg (1006.0 mb)
Winds: from the W (280 degrees) at 3 MPH (3 knots; 1.5 m/s)
Visibility: 6 or more miles (10+ km)
Ceiling: 8000 feet AGL
Clouds: scattered clouds at 1300 feet AGL
broken clouds at 8000 feet AGL
broken clouds at 30000 feet AGL
Weather: -RA  (light rain)

METAR text: SEST 232100Z 00000KT 9999 -RA SCT020 BKN080 BKN300 27/26 Q1007 RMK A2973
Conditions at: SEST (SAN CRISTOBAL IS, EC) observed 2100 UTC 23 March 2019
Temperature: 27.0°C (81°F)
Dewpoint: 26.0°C (79°F) [RH = 94%]
Pressure (altimeter): 29.73 inches Hg (1007.0 mb)
Winds: calm
Visibility: 6 or more miles (10+ km)
Ceiling: 8000 feet AGL
Clouds: scattered clouds at 2000 feet AGL
broken clouds at 8000 feet AGL
broken clouds at 30000 feet AGL
Weather: -RA  (light rain)

METAR text: SEST 232000Z 17004KT 9999 -RA SCT016 BKN080 BKN300 27/25 Q1007 RMK A2975
Conditions at: SEST (SAN CRISTOBAL IS, EC) observed 2000 UTC 23 March 2019
Temperature: 27.0°C (81°F)
Dewpoint: 25.0°C (77°F) [RH = 89%]
Pressure (altimeter): 29.73 inches Hg (1007.0 mb)
Winds: from the S (170 degrees) at 5 MPH (4 knots; 2.1 m/s)
Visibility: 6 or more miles (10+ km)
Ceiling: 8000 feet AGL
Clouds: scattered clouds at 1600 feet AGL
broken clouds at 8000 feet AGL
broken clouds at 30000 feet AGL
Weather: -RA  (light rain)

METAR text: SEST 231900Z 27004KT 9999 -RA BKN016 BKN260 27/25 Q1008 RMK A2977
Conditions at: SEST (SAN CRISTOBAL IS, EC) observed 1900 UTC 23 March 2019
Temperature: 27.0°C (81°F)
Dewpoint: 25.0°C (77°F) [RH = 89%]
Pressure (altimeter): 29.76 inches Hg (1008.0 mb)
Winds: from the W (270 degrees) at 5 MPH (4 knots; 2.1 m/s)
Visibility: 6 or more miles (10+ km)
Ceiling: 1600 feet AGL
Clouds: broken clouds at 1600 feet AGL
broken clouds at 26000 feet AGL
Weather: -RA  (light rain)

METAR text: SEST 231800Z 27005KT 9999 FEW015 SCT100 BKN230 29/25 Q1009 RMK A2980
Conditions at: SEST (SAN CRISTOBAL IS, EC) observed 1800 UTC 23 March 2019
Temperature: 29.0°C (84°F)
Dewpoint: 25.0°C (77°F) [RH = 79%]
Pressure (altimeter): 29.79 inches Hg (1009.0 mb)
Winds: from the W (270 degrees) at 6 MPH (5 knots; 2.6 m/s)
Visibility: 6 or more miles (10+ km)
Ceiling: 23000 feet AGL
Clouds: few clouds at 1500 feet AGL
scattered clouds at 10000 feet AGL
broken clouds at 23000 feet AGL
Weather: no significant weather observed at this time

METAR text: SEST 231700Z 29005KT 9999 FEW013 SCT100 BKN230 29/25 Q1011 RMK A2985
Conditions at: SEST (SAN CRISTOBAL IS, EC) observed 1700 UTC 23 March 2019
Temperature: 29.0°C (84°F)
Dewpoint: 25.0°C (77°F) [RH = 79%]
Pressure (altimeter): 29.85 inches Hg (1011.0 mb)
Winds: from the WNW (290 degrees) at 6 MPH (5 knots; 2.6 m/s)
Visibility: 6 or more miles (10+ km)
Ceiling: 23000 feet AGL
Clouds: few clouds at 1300 feet AGL
scattered clouds at 10000 feet AGL
broken clouds at 23000 feet AGL
Weather: no significant weather observed at this time

METAR text: SEST 231600Z 36004KT 9999 FEW013 SCT080 BKN230 27/25 Q1011 RMK A2985
Conditions at: SEST (SAN CRISTOBAL IS, EC) observed 1600 UTC 23 March 2019
Temperature: 27.0°C (81°F)
Dewpoint: 25.0°C (77°F) [RH = 89%]
Pressure (altimeter): 29.85 inches Hg (1011.0 mb)
Winds: from the N (360 degrees) at 5 MPH (4 knots; 2.1 m/s)
Visibility: 6 or more miles (10+ km)
Ceiling: 23000 feet AGL
Clouds: few clouds at 1300 feet AGL
scattered clouds at 8000 feet AGL
broken clouds at 23000 feet AGL
Weather: no significant weather observed at this time

METAR text: SEST 231500Z 16004KT 9999 FEW010 SCT040 BKN200 26/25 Q1010 RMK A2984
Conditions at: SEST (SAN CRISTOBAL IS, EC) observed 1500 UTC 23 March 2019
Temperature: 26.0°C (79°F)
Dewpoint: 25.0°C (77°F) [RH = 94%]
Pressure (altimeter): 29.82 inches Hg (1010.0 mb)
Winds: from the SSE (160 degrees) at 5 MPH (4 knots; 2.1 m/s)
Visibility: 6 or more miles (10+ km)
Ceiling: 20000 feet AGL
Clouds: few clouds at 1000 feet AGL
scattered clouds at 4000 feet AGL
broken clouds at 20000 feet AGL
Weather: no significant weather observed at this time

METAR text: SEST 231400Z 15006KT 9999 FEW010 BKN040 BKN260 25/24 Q1010 RMK A2984
Conditions at: SEST (SAN CRISTOBAL IS, EC) observed 1400 UTC 23 March 2019
Temperature: 25.0°C (77°F)
Dewpoint: 24.0°C (75°F) [RH = 94%]
Pressure (altimeter): 29.82 inches Hg (1010.0 mb)
Winds: from the SSE (150 degrees) at 7 MPH (6 knots; 3.1 m/s)
Visibility: 6 or more miles (10+ km)
Ceiling: 4000 feet AGL
Clouds: few clouds at 1000 feet AGL
broken clouds at 4000 feet AGL
broken clouds at 26000 feet AGL
Weather: no significant weather observed at this time

METAR text: SEST 231300Z 13005KT 9999 SCT010 SCT100 BKN230 25/24 Q1010 RMK A2982
Conditions at: SEST (SAN CRISTOBAL IS, EC) observed 1300 UTC 23 March 2019
Temperature: 25.0°C (77°F)
Dewpoint: 24.0°C (75°F) [RH = 94%]
Pressure (altimeter): 29.82 inches Hg (1010.0 mb)
Winds: from the SE (130 degrees) at 6 MPH (5 knots; 2.6 m/s)
Visibility: 6 or more miles (10+ km)
Ceiling: 23000 feet AGL
Clouds: scattered clouds at 1000 feet AGL
scattered clouds at 10000 feet AGL
broken clouds at 23000 feet AGL
Weather: no significant weather observed at this time

METAR text: SEST 231200Z 13006KT 9999 BKN030 OVC230 25/24 Q1009 RMK A2979
Conditions at: SEST (SAN CRISTOBAL IS, EC) observed 1200 UTC 23 March 2019
Temperature: 25.0°C (77°F)
Dewpoint: 24.0°C (75°F) [RH = 94%]
Pressure (altimeter): 29.79 inches Hg (1009.0 mb)
Winds: from the SE (130 degrees) at 7 MPH (6 knots; 3.1 m/s)
Visibility: 6 or more miles (10+ km)
Ceiling: 3000 feet AGL
Clouds: broken clouds at 3000 feet AGL
overcast cloud deck at 23000 feet AGL
Weather: no significant weather observed at this time

METAR text: SEST 230000Z 00000KT 9999 SCT020 BKN230 27/24 Q1007 RMK A2974
Conditions at: SEST (SAN CRISTOBAL IS, EC) observed 0000 UTC 23 March 2019
Temperature: 27.0°C (81°F)
Dewpoint: 24.0°C (75°F) [RH = 84%]
Pressure (altimeter): 29.73 inches Hg (1007.0 mb)
Winds: calm
Visibility: 6 or more miles (10+ km)
Ceiling: 23000 feet AGL
Clouds: scattered clouds at 2000 feet AGL
broken clouds at 23000 feet AGL
Weather: no significant weather observed at this time

METAR text: SEST 222300Z 30004KT 9999 SCT020 BKN230 28/24 Q1007 RMK A2973
Conditions at: SEST (SAN CRISTOBAL IS, EC) observed 2300 UTC 22 March 2019
Temperature: 28.0°C (82°F)
Dewpoint: 24.0°C (75°F) [RH = 79%]
Pressure (altimeter): 29.73 inches Hg (1007.0 mb)
Winds: from the WNW (300 degrees) at 5 MPH (4 knots; 2.1 m/s)
Visibility: 6 or more miles (10+ km)
Ceiling: 23000 feet AGL
Clouds: scattered clouds at 2000 feet AGL
broken clouds at 23000 feet AGL
Weather: no significant weather observed at this time

METAR text: SEST 222200Z 30003KT 9999 BKN020 SCT230 28/24 Q1007 RMK A2973
Conditions at: SEST (SAN CRISTOBAL IS, EC) observed 2200 UTC 22 March 2019
Temperature: 28.0°C (82°F)
Dewpoint: 24.0°C (75°F) [RH = 79%]
Pressure (altimeter): 29.73 inches Hg (1007.0 mb)
Winds: from the WNW (300 degrees) at 3 MPH (3 knots; 1.5 m/s)
Visibility: 6 or more miles (10+ km)
Ceiling: 2000 feet AGL
Clouds: broken clouds at 2000 feet AGL
scattered clouds at 23000 feet AGL
Weather: no significant weather observed at this time